sensor_id;sensor_type;location;lat;lon;timestamp;P1;durP1;ratioP1;P2;durP2;ratioP2
31724;SDS011;18306;40.960;14.836;2023-02-28T00:01:43;3.13;;;1.40;;
31724;SDS011;18306;40.960;14.836;2023-02-28T00:04:11;1.40;;;1.15;;
31724;SDS011;18306;40.960;14.836;2023-02-28T00:06:38;4.10;;;1.42;;
31724;SDS011;18306;40.960;14.836;2023-02-28T00:09:06;2.83;;;1.45;;
31724;SDS011;18306;40.960;14.836;2023-02-28T00:11:33;4.38;;;1.73;;
31724;SDS011;18306;40.960;14.836;2023-02-28T00:14:00;2.28;;;1.50;;
31724;SDS011;18306;40.960;14.836;2023-02-28T00:16:28;2.72;;;1.48;;
31724;SDS011;18306;40.960;14.836;2023-02-28T00:18:55;2.25;;;1.45;;
31724;SDS011;18306;40.960;14.836;2023-02-28T00:21:23;3.70;;;0.98;;
31724;SDS011;18306;40.960;14.836;2023-02-28T00:23:50;4.78;;;1.38;;
31724;SDS011;18306;40.960;14.836;2023-02-28T00:26:17;4.43;;;1.88;;
31724;SDS011;18306;40.960;14.836;2023-02-28T00:28:45;5.82;;;1.80;;
31724;SDS011;18306;40.960;14.836;2023-02-28T00:31:12;6.55;;;1.30;;
31724;SDS011;18306;40.960;14.836;2023-02-28T00:33:39;2.10;;;1.35;;
31724;SDS011;18306;40.960;14.836;2023-02-28T00:36:08;2.92;;;1.27;;
31724;SDS011;18306;40.960;14.836;2023-02-28T00:38:37;1.35;;;1.17;;
31724;SDS011;18306;40.960;14.836;2023-02-28T00:41:06;1.08;;;0.88;;
31724;SDS011;18306;40.960;14.836;2023-02-28T00:43:35;2.50;;;0.85;;
31724;SDS011;18306;40.960;14.836;2023-02-28T00:46:03;1.15;;;1.00;;
31724;SDS011;18306;40.960;14.836;2023-02-28T00:48:31;1.08;;;0.80;;
31724;SDS011;18306;40.960;14.836;2023-02-28T00:50:59;1.63;;;1.13;;
31724;SDS011;18306;40.960;14.836;2023-02-28T00:53:26;1.52;;;1.17;;
31724;SDS011;18306;40.960;14.836;2023-02-28T00:55:53;5.15;;;0.85;;
31724;SDS011;18306;40.960;14.836;2023-02-28T00:58:21;1.25;;;0.95;;
31724;SDS011;18306;40.960;14.836;2023-02-28T01:00:48;3.67;;;1.20;;
31724;SDS011;18306;40.960;14.836;2023-02-28T01:03:17;2.35;;;1.58;;
31724;SDS011;18306;40.960;14.836;2023-02-28T01:05:46;2.53;;;1.42;;
31724;SDS011;18306;40.960;14.836;2023-02-28T01:08:14;2.90;;;1.50;;
31724;SDS011;18306;40.960;14.836;2023-02-28T01:10:41;4.07;;;1.38;;
31724;SDS011;18306;40.960;14.836;2023-02-28T01:13:09;1.83;;;1.50;;
31724;SDS011;18306;40.960;14.836;2023-02-28T01:15:37;5.28;;;2.05;;
31724;SDS011;18306;40.960;14.836;2023-02-28T01:18:08;3.10;;;1.20;;
31724;SDS011;18306;40.960;14.836;2023-02-28T01:20:38;4.00;;;1.35;;
31724;SDS011;18306;40.960;14.836;2023-02-28T01:23:06;1.73;;;1.50;;
31724;SDS011;18306;40.960;14.836;2023-02-28T01:25:34;2.63;;;1.02;;
31724;SDS011;18306;40.960;14.836;2023-02-28T01:28:04;3.03;;;1.08;;
31724;SDS011;18306;40.960;14.836;2023-02-28T01:30:32;4.97;;;1.70;;
31724;SDS011;18306;40.960;14.836;2023-02-28T01:33:00;2.70;;;1.27;;
31724;SDS011;18306;40.960;14.836;2023-02-28T01:35:27;5.13;;;1.92;;
31724;SDS011;18306;40.960;14.836;2023-02-28T01:37:54;2.97;;;1.30;;
31724;SDS011;18306;40.960;14.836;2023-02-28T01:40:22;1.63;;;1.20;;
31724;SDS011;18306;40.960;14.836;2023-02-28T01:42:49;6.28;;;1.67;;
31724;SDS011;18306;40.960;14.836;2023-02-28T01:45:29;4.03;;;1.42;;
31724;SDS011;18306;40.960;14.836;2023-02-28T01:48:04;1.55;;;1.15;;
31724;SDS011;18306;40.960;14.836;2023-02-28T01:50:36;4.00;;;2.70;;
31724;SDS011;18306;40.960;14.836;2023-02-28T01:53:11;1.55;;;1.20;;
31724;SDS011;18306;40.960;14.836;2023-02-28T01:55:42;1.88;;;1.30;;
31724;SDS011;18306;40.960;14.836;2023-02-28T01:58:14;2.25;;;1.35;;
31724;SDS011;18306;40.960;14.836;2023-02-28T02:00:42;2.75;;;1.67;;
31724;SDS011;18306;40.960;14.836;2023-02-28T02:03:11;4.85;;;1.55;;
31724;SDS011;18306;40.960;14.836;2023-02-28T02:05:42;4.38;;;1.92;;
31724;SDS011;18306;40.960;14.836;2023-02-28T02:08:23;6.60;;;1.77;;
31724;SDS011;18306;40.960;14.836;2023-02-28T02:10:55;2.47;;;1.13;;
31724;SDS011;18306;40.960;14.836;2023-02-28T02:13:30;3.90;;;1.40;;
31724;SDS011;18306;40.960;14.836;2023-02-28T02:22:03;2.17;;;1.58;;
31724;SDS011;18306;40.960;14.836;2023-02-28T02:25:03;1.85;;;1.50;;
31724;SDS011;18306;40.960;14.836;2023-02-28T02:33:33;1.75;;;1.02;;
31724;SDS011;18306;40.960;14.836;2023-02-28T02:36:18;0.90;;;0.70;;
31724;SDS011;18306;40.960;14.836;2023-02-28T02:46:54;4.65;;;1.00;;
31724;SDS011;18306;40.960;14.836;2023-02-28T02:49:29;2.03;;;1.45;;
31724;SDS011;18306;40.960;14.836;2023-02-28T02:52:01;4.38;;;1.17;;
31724;SDS011;18306;40.960;14.836;2023-02-28T02:54:35;4.50;;;1.50;;
31724;SDS011;18306;40.960;14.836;2023-02-28T02:57:06;2.17;;;1.42;;
31724;SDS011;18306;40.960;14.836;2023-02-28T02:59:38;1.10;;;1.00;;
31724;SDS011;18306;40.960;14.836;2023-02-28T03:02:08;1.65;;;0.82;;
31724;SDS011;18306;40.960;14.836;2023-02-28T03:07:27;1.05;;;0.80;;
31724;SDS011;18306;40.960;14.836;2023-02-28T03:09:55;2.72;;;1.27;;
31724;SDS011;18306;40.960;14.836;2023-02-28T03:12:32;1.98;;;1.05;;
31724;SDS011;18306;40.960;14.836;2023-02-28T03:15:08;4.32;;;1.38;;
31724;SDS011;18306;40.960;14.836;2023-02-28T03:18:10;3.03;;;1.00;;
31724;SDS011;18306;40.960;14.836;2023-02-28T03:21:10;1.45;;;0.80;;
31724;SDS011;18306;40.960;14.836;2023-02-28T03:23:48;0.80;;;0.80;;
31724;SDS011;18306;40.960;14.836;2023-02-28T03:26:36;0.73;;;0.73;;
31724;SDS011;18306;40.960;14.836;2023-02-28T03:29:18;1.55;;;1.10;;
31724;SDS011;18306;40.960;14.836;2023-02-28T03:31:58;1.73;;;0.80;;
31724;SDS011;18306;40.960;14.836;2023-02-28T03:35:01;2.05;;;0.93;;
31724;SDS011;18306;40.960;14.836;2023-02-28T03:40:05;3.20;;;1.10;;
31724;SDS011;18306;40.960;14.836;2023-02-28T03:42:39;1.90;;;1.05;;
31724;SDS011;18306;40.960;14.836;2023-02-28T03:50:18;1.25;;;0.82;;
31724;SDS011;18306;40.960;14.836;2023-02-28T03:53:03;0.77;;;0.70;;
31724;SDS011;18306;40.960;14.836;2023-02-28T03:55:37;9.63;;;1.63;;
31724;SDS011;18306;40.960;14.836;2023-02-28T03:58:16;1.60;;;0.90;;
31724;SDS011;18306;40.960;14.836;2023-02-28T04:00:56;2.83;;;1.33;;
31724;SDS011;18306;40.960;14.836;2023-02-28T04:03:35;3.45;;;1.13;;
31724;SDS011;18306;40.960;14.836;2023-02-28T04:06:04;5.43;;;1.20;;
31724;SDS011;18306;40.960;14.836;2023-02-28T04:08:39;2.33;;;0.73;;
31724;SDS011;18306;40.960;14.836;2023-02-28T04:11:15;1.63;;;0.95;;
31724;SDS011;18306;40.960;14.836;2023-02-28T04:13:43;4.45;;;0.68;;
31724;SDS011;18306;40.960;14.836;2023-02-28T04:16:11;2.90;;;1.40;;
31724;SDS011;18306;40.960;14.836;2023-02-28T04:18:39;3.08;;;1.20;;
31724;SDS011;18306;40.960;14.836;2023-02-28T04:21:07;1.42;;;0.68;;
31724;SDS011;18306;40.960;14.836;2023-02-28T04:23:34;4.00;;;1.10;;
31724;SDS011;18306;40.960;14.836;2023-02-28T04:26:01;0.90;;;0.80;;
31724;SDS011;18306;40.960;14.836;2023-02-28T04:28:30;3.05;;;1.45;;
31724;SDS011;18306;40.960;14.836;2023-02-28T04:30:58;10.20;;;1.90;;
31724;SDS011;18306;40.960;14.836;2023-02-28T04:33:30;1.55;;;1.13;;
31724;SDS011;18306;40.960;14.836;2023-02-28T04:35:59;2.40;;;1.17;;
31724;SDS011;18306;40.960;14.836;2023-02-28T04:38:35;6.18;;;1.45;;
31724;SDS011;18306;40.960;14.836;2023-02-28T04:41:04;6.35;;;1.23;;
31724;SDS011;18306;40.960;14.836;2023-02-28T04:43:32;2.83;;;1.50;;
31724;SDS011;18306;40.960;14.836;2023-02-28T04:46:00;1.38;;;1.20;;
31724;SDS011;18306;40.960;14.836;2023-02-28T04:48:30;1.55;;;0.85;;
31724;SDS011;18306;40.960;14.836;2023-02-28T04:51:03;1.13;;;1.00;;
31724;SDS011;18306;40.960;14.836;2023-02-28T04:53:37;4.30;;;0.73;;
31724;SDS011;18306;40.960;14.836;2023-02-28T04:56:13;3.70;;;0.93;;
31724;SDS011;18306;40.960;14.836;2023-02-28T04:58:42;4.10;;;1.10;;
31724;SDS011;18306;40.960;14.836;2023-02-28T05:01:20;2.08;;;1.33;;
31724;SDS011;18306;40.960;14.836;2023-02-28T05:03:53;3.00;;;1.60;;
31724;SDS011;18306;40.960;14.836;2023-02-28T05:06:22;4.30;;;1.02;;
31724;SDS011;18306;40.960;14.836;2023-02-28T05:08:54;3.13;;;1.40;;
31724;SDS011;18306;40.960;14.836;2023-02-28T05:13:55;2.13;;;1.27;;
31724;SDS011;18306;40.960;14.836;2023-02-28T05:16:23;5.72;;;2.13;;
31724;SDS011;18306;40.960;14.836;2023-02-28T05:18:50;4.20;;;1.65;;
31724;SDS011;18306;40.960;14.836;2023-02-28T05:21:22;2.78;;;2.13;;
31724;SDS011;18306;40.960;14.836;2023-02-28T05:23:52;1.20;;;1.10;;
31724;SDS011;18306;40.960;14.836;2023-02-28T05:26:21;1.55;;;1.08;;
31724;SDS011;18306;40.960;14.836;2023-02-28T05:28:48;0.85;;;0.85;;
31724;SDS011;18306;40.960;14.836;2023-02-28T05:31:16;1.58;;;1.42;;
31724;SDS011;18306;40.960;14.836;2023-02-28T05:33:43;2.85;;;1.77;;
31724;SDS011;18306;40.960;14.836;2023-02-28T05:36:11;2.30;;;1.35;;
31724;SDS011;18306;40.960;14.836;2023-02-28T05:38:38;4.28;;;2.30;;
31724;SDS011;18306;40.960;14.836;2023-02-28T05:41:08;3.35;;;1.50;;
31724;SDS011;18306;40.960;14.836;2023-02-28T05:43:37;1.98;;;1.33;;
31724;SDS011;18306;40.960;14.836;2023-02-28T05:46:05;3.50;;;1.95;;
31724;SDS011;18306;40.960;14.836;2023-02-28T05:48:34;8.70;;;1.52;;
31724;SDS011;18306;40.960;14.836;2023-02-28T05:51:03;1.08;;;0.80;;
31724;SDS011;18306;40.960;14.836;2023-02-28T05:53:31;2.35;;;1.02;;
31724;SDS011;18306;40.960;14.836;2023-02-28T05:55:59;3.70;;;2.63;;
31724;SDS011;18306;40.960;14.836;2023-02-28T05:58:27;2.47;;;1.98;;
31724;SDS011;18306;40.960;14.836;2023-02-28T06:00:58;4.25;;;1.95;;
31724;SDS011;18306;40.960;14.836;2023-02-28T06:03:27;3.83;;;1.88;;
31724;SDS011;18306;40.960;14.836;2023-02-28T06:06:07;3.78;;;1.45;;
31724;SDS011;18306;40.960;14.836;2023-02-28T06:08:39;0.73;;;0.73;;
31724;SDS011;18306;40.960;14.836;2023-02-28T06:11:16;1.90;;;1.35;;
31724;SDS011;18306;40.960;14.836;2023-02-28T06:13:54;2.08;;;1.17;;
31724;SDS011;18306;40.960;14.836;2023-02-28T06:16:32;5.60;;;1.92;;
31724;SDS011;18306;40.960;14.836;2023-02-28T06:19:02;4.07;;;2.38;;
31724;SDS011;18306;40.960;14.836;2023-02-28T06:21:31;6.00;;;2.78;;
31724;SDS011;18306;40.960;14.836;2023-02-28T06:23:59;4.32;;;2.05;;
31724;SDS011;18306;40.960;14.836;2023-02-28T06:26:26;3.65;;;1.80;;
31724;SDS011;18306;40.960;14.836;2023-02-28T06:28:54;3.05;;;1.90;;
31724;SDS011;18306;40.960;14.836;2023-02-28T06:31:22;6.18;;;2.90;;
31724;SDS011;18306;40.960;14.836;2023-02-28T06:33:50;4.85;;;2.58;;
31724;SDS011;18306;40.960;14.836;2023-02-28T06:36:20;4.82;;;3.15;;
31724;SDS011;18306;40.960;14.836;2023-02-28T06:38:49;5.53;;;2.83;;
31724;SDS011;18306;40.960;14.836;2023-02-28T06:41:24;6.05;;;3.28;;
31724;SDS011;18306;40.960;14.836;2023-02-28T06:43:53;5.75;;;3.35;;
31724;SDS011;18306;40.960;14.836;2023-02-28T06:46:20;4.43;;;1.58;;
31724;SDS011;18306;40.960;14.836;2023-02-28T06:48:48;6.22;;;1.70;;
31724;SDS011;18306;40.960;14.836;2023-02-28T06:51:17;3.78;;;1.73;;
31724;SDS011;18306;40.960;14.836;2023-02-28T06:53:49;4.55;;;2.35;;
31724;SDS011;18306;40.960;14.836;2023-02-28T06:56:16;5.93;;;1.58;;
31724;SDS011;18306;40.960;14.836;2023-02-28T06:58:48;4.05;;;2.20;;
31724;SDS011;18306;40.960;14.836;2023-02-28T07:01:17;3.78;;;2.33;;
31724;SDS011;18306;40.960;14.836;2023-02-28T07:03:45;4.93;;;1.85;;
31724;SDS011;18306;40.960;14.836;2023-02-28T07:06:13;13.15;;;3.72;;
31724;SDS011;18306;40.960;14.836;2023-02-28T07:08:40;4.78;;;2.40;;
31724;SDS011;18306;40.960;14.836;2023-02-28T07:11:08;5.85;;;2.42;;
31724;SDS011;18306;40.960;14.836;2023-02-28T07:13:36;13.40;;;4.78;;
31724;SDS011;18306;40.960;14.836;2023-02-28T07:16:05;4.43;;;2.00;;
31724;SDS011;18306;40.960;14.836;2023-02-28T07:18:35;10.85;;;4.55;;
31724;SDS011;18306;40.960;14.836;2023-02-28T07:21:05;4.53;;;2.20;;
31724;SDS011;18306;40.960;14.836;2023-02-28T07:23:35;4.85;;;2.60;;
31724;SDS011;18306;40.960;14.836;2023-02-28T07:26:06;4.20;;;1.75;;
31724;SDS011;18306;40.960;14.836;2023-02-28T07:28:37;4.03;;;1.77;;
31724;SDS011;18306;40.960;14.836;2023-02-28T07:31:05;4.25;;;1.80;;
31724;SDS011;18306;40.960;14.836;2023-02-28T07:33:33;4.85;;;2.05;;
31724;SDS011;18306;40.960;14.836;2023-02-28T07:36:06;2.28;;;1.80;;
31724;SDS011;18306;40.960;14.836;2023-02-28T07:38:35;9.88;;;3.55;;
31724;SDS011;18306;40.960;14.836;2023-02-28T07:41:04;9.50;;;3.40;;
31724;SDS011;18306;40.960;14.836;2023-02-28T07:43:31;3.70;;;2.40;;
31724;SDS011;18306;40.960;14.836;2023-02-28T07:46:04;4.93;;;3.33;;
31724;SDS011;18306;40.960;14.836;2023-02-28T07:48:33;6.00;;;2.45;;
31724;SDS011;18306;40.960;14.836;2023-02-28T07:51:01;4.45;;;2.30;;
31724;SDS011;18306;40.960;14.836;2023-02-28T07:53:29;5.68;;;2.42;;
31724;SDS011;18306;40.960;14.836;2023-02-28T07:55:57;3.80;;;2.63;;
31724;SDS011;18306;40.960;14.836;2023-02-28T07:58:25;4.20;;;2.25;;
31724;SDS011;18306;40.960;14.836;2023-02-28T08:00:53;3.80;;;2.45;;
31724;SDS011;18306;40.960;14.836;2023-02-28T08:03:22;7.28;;;2.58;;
31724;SDS011;18306;40.960;14.836;2023-02-28T08:05:50;1.70;;;1.52;;
31724;SDS011;18306;40.960;14.836;2023-02-28T08:08:19;2.88;;;2.47;;
31724;SDS011;18306;40.960;14.836;2023-02-28T08:10:46;3.15;;;2.00;;
31724;SDS011;18306;40.960;14.836;2023-02-28T08:13:13;3.85;;;2.15;;
31724;SDS011;18306;40.960;14.836;2023-02-28T08:15:41;2.53;;;1.92;;
31724;SDS011;18306;40.960;14.836;2023-02-28T08:18:09;2.28;;;1.80;;
31724;SDS011;18306;40.960;14.836;2023-02-28T08:20:37;6.88;;;2.40;;
31724;SDS011;18306;40.960;14.836;2023-02-28T08:23:04;8.75;;;2.00;;
31724;SDS011;18306;40.960;14.836;2023-02-28T08:25:31;3.80;;;2.47;;
31724;SDS011;18306;40.960;14.836;2023-02-28T08:27:59;6.10;;;3.00;;
31724;SDS011;18306;40.960;14.836;2023-02-28T08:30:26;2.85;;;2.42;;
31724;SDS011;18306;40.960;14.836;2023-02-28T08:32:54;3.78;;;2.58;;
31724;SDS011;18306;40.960;14.836;2023-02-28T08:35:22;6.25;;;2.03;;
31724;SDS011;18306;40.960;14.836;2023-02-28T08:37:50;4.45;;;1.98;;
31724;SDS011;18306;40.960;14.836;2023-02-28T08:40:17;3.83;;;2.25;;
31724;SDS011;18306;40.960;14.836;2023-02-28T08:42:45;1.50;;;1.42;;
31724;SDS011;18306;40.960;14.836;2023-02-28T08:45:15;4.60;;;2.13;;
31724;SDS011;18306;40.960;14.836;2023-02-28T08:47:43;3.47;;;2.45;;
31724;SDS011;18306;40.960;14.836;2023-02-28T08:50:14;5.22;;;2.50;;
31724;SDS011;18306;40.960;14.836;2023-02-28T08:52:42;3.03;;;2.20;;
31724;SDS011;18306;40.960;14.836;2023-02-28T08:55:10;9.13;;;2.45;;
31724;SDS011;18306;40.960;14.836;2023-02-28T08:57:37;5.38;;;2.53;;
31724;SDS011;18306;40.960;14.836;2023-02-28T09:00:05;5.13;;;3.03;;
31724;SDS011;18306;40.960;14.836;2023-02-28T09:02:35;8.35;;;2.42;;
31724;SDS011;18306;40.960;14.836;2023-02-28T09:05:03;5.70;;;2.78;;
31724;SDS011;18306;40.960;14.836;2023-02-28T09:07:31;3.25;;;2.13;;
31724;SDS011;18306;40.960;14.836;2023-02-28T09:09:58;3.65;;;2.13;;
31724;SDS011;18306;40.960;14.836;2023-02-28T09:12:26;8.18;;;3.85;;
31724;SDS011;18306;40.960;14.836;2023-02-28T09:14:55;5.68;;;2.13;;
31724;SDS011;18306;40.960;14.836;2023-02-28T09:17:22;6.32;;;2.53;;
31724;SDS011;18306;40.960;14.836;2023-02-28T09:19:50;6.07;;;4.18;;
31724;SDS011;18306;40.960;14.836;2023-02-28T09:22:17;5.25;;;2.42;;
31724;SDS011;18306;40.960;14.836;2023-02-28T09:24:45;6.43;;;2.13;;
31724;SDS011;18306;40.960;14.836;2023-02-28T09:27:14;4.85;;;2.08;;
31724;SDS011;18306;40.960;14.836;2023-02-28T09:29:42;5.95;;;2.58;;
31724;SDS011;18306;40.960;14.836;2023-02-28T09:32:10;7.78;;;2.10;;
31724;SDS011;18306;40.960;14.836;2023-02-28T09:34:37;5.00;;;2.30;;
31724;SDS011;18306;40.960;14.836;2023-02-28T09:37:05;5.38;;;2.28;;
31724;SDS011;18306;40.960;14.836;2023-02-28T09:39:32;6.15;;;3.10;;
31724;SDS011;18306;40.960;14.836;2023-02-28T09:41:59;6.13;;;2.50;;
31724;SDS011;18306;40.960;14.836;2023-02-28T09:44:30;5.40;;;2.45;;
31724;SDS011;18306;40.960;14.836;2023-02-28T09:47:07;3.90;;;2.03;;
31724;SDS011;18306;40.960;14.836;2023-02-28T09:49:46;1.75;;;1.65;;
31724;SDS011;18306;40.960;14.836;2023-02-28T09:52:17;3.72;;;1.63;;
31724;SDS011;18306;40.960;14.836;2023-02-28T09:54:49;4.20;;;1.80;;
31724;SDS011;18306;40.960;14.836;2023-02-28T09:57:33;2.83;;;2.28;;
31724;SDS011;18306;40.960;14.836;2023-02-28T10:05:43;9.95;;;2.70;;
31724;SDS011;18306;40.960;14.836;2023-02-28T10:08:25;3.72;;;2.15;;
31724;SDS011;18306;40.960;14.836;2023-02-28T10:11:02;4.30;;;2.08;;
31724;SDS011;18306;40.960;14.836;2023-02-28T10:13:53;3.30;;;2.00;;
31724;SDS011;18306;40.960;14.836;2023-02-28T10:16:41;2.13;;;1.80;;
31724;SDS011;18306;40.960;14.836;2023-02-28T10:22:25;4.35;;;2.15;;
31724;SDS011;18306;40.960;14.836;2023-02-28T10:25:37;8.05;;;2.92;;
31724;SDS011;18306;40.960;14.836;2023-02-28T10:30:44;7.90;;;2.15;;
31724;SDS011;18306;40.960;14.836;2023-02-28T10:35:47;9.93;;;3.15;;
31724;SDS011;18306;40.960;14.836;2023-02-28T10:38:19;6.20;;;2.50;;
31724;SDS011;18306;40.960;14.836;2023-02-28T10:43:41;8.07;;;2.22;;
31724;SDS011;18306;40.960;14.836;2023-02-28T10:46:13;7.07;;;2.33;;
31724;SDS011;18306;40.960;14.836;2023-02-28T10:49:02;2.67;;;2.17;;
31724;SDS011;18306;40.960;14.836;2023-02-28T10:51:36;10.45;;;2.63;;
31724;SDS011;18306;40.960;14.836;2023-02-28T10:54:06;2.60;;;1.67;;
31724;SDS011;18306;40.960;14.836;2023-02-28T10:56:43;5.78;;;4.68;;
31724;SDS011;18306;40.960;14.836;2023-02-28T11:01:56;4.22;;;1.90;;
31724;SDS011;18306;40.960;14.836;2023-02-28T11:04:42;4.57;;;2.97;;
31724;SDS011;18306;40.960;14.836;2023-02-28T11:07:23;12.35;;;7.10;;
31724;SDS011;18306;40.960;14.836;2023-02-28T11:10:00;8.32;;;2.50;;
31724;SDS011;18306;40.960;14.836;2023-02-28T11:12:42;6.57;;;2.60;;
31724;SDS011;18306;40.960;14.836;2023-02-28T11:15:24;4.65;;;2.63;;
31724;SDS011;18306;40.960;14.836;2023-02-28T11:18:24;6.03;;;1.80;;
31724;SDS011;18306;40.960;14.836;2023-02-28T11:21:27;6.50;;;1.98;;
31724;SDS011;18306;40.960;14.836;2023-02-28T11:24:44;2.67;;;2.10;;
31724;SDS011;18306;40.960;14.836;2023-02-28T11:26:59;5.05;;;2.45;;
31724;SDS011;18306;40.960;14.836;2023-02-28T11:29:30;8.73;;;2.72;;
31724;SDS011;18306;40.960;14.836;2023-02-28T11:32:12;4.15;;;2.47;;
31724;SDS011;18306;40.960;14.836;2023-02-28T11:34:45;10.70;;;2.08;;
31724;SDS011;18306;40.960;14.836;2023-02-28T11:37:29;10.48;;;1.95;;
31724;SDS011;18306;40.960;14.836;2023-02-28T11:39:58;9.48;;;2.08;;
31724;SDS011;18306;40.960;14.836;2023-02-28T11:48:49;6.15;;;2.03;;
31724;SDS011;18306;40.960;14.836;2023-02-28T11:54:47;2.60;;;2.38;;
31724;SDS011;18306;40.960;14.836;2023-02-28T12:00:40;7.57;;;2.33;;
31724;SDS011;18306;40.960;14.836;2023-02-28T12:09:39;5.15;;;2.33;;
31724;SDS011;18306;40.960;14.836;2023-02-28T12:18:40;7.53;;;2.80;;
31724;SDS011;18306;40.960;14.836;2023-02-28T12:21:25;10.70;;;4.40;;
31724;SDS011;18306;40.960;14.836;2023-02-28T12:27:12;5.82;;;2.88;;
31724;SDS011;18306;40.960;14.836;2023-02-28T12:29:46;5.70;;;3.88;;
31724;SDS011;18306;40.960;14.836;2023-02-28T12:32:29;9.48;;;4.82;;
31724;SDS011;18306;40.960;14.836;2023-02-28T12:35:04;8.27;;;2.85;;
31724;SDS011;18306;40.960;14.836;2023-02-28T12:38:01;3.42;;;2.10;;
31724;SDS011;18306;40.960;14.836;2023-02-28T12:40:38;3.00;;;2.15;;
31724;SDS011;18306;40.960;14.836;2023-02-28T12:43:12;4.80;;;2.17;;
31724;SDS011;18306;40.960;14.836;2023-02-28T12:45:56;4.20;;;2.72;;
31724;SDS011;18306;40.960;14.836;2023-02-28T12:48:47;3.63;;;2.15;;
31724;SDS011;18306;40.960;14.836;2023-02-28T12:51:18;6.18;;;2.70;;
31724;SDS011;18306;40.960;14.836;2023-02-28T12:59:40;5.75;;;2.92;;
31724;SDS011;18306;40.960;14.836;2023-02-28T13:08:25;12.52;;;3.83;;
31724;SDS011;18306;40.960;14.836;2023-02-28T13:10:57;9.05;;;3.85;;
31724;SDS011;18306;40.960;14.836;2023-02-28T13:13:28;4.45;;;3.10;;
31724;SDS011;18306;40.960;14.836;2023-02-28T13:16:05;6.68;;;3.97;;
31724;SDS011;18306;40.960;14.836;2023-02-28T13:21:26;7.15;;;3.00;;
31724;SDS011;18306;40.960;14.836;2023-02-28T13:23:57;6.85;;;3.45;;
31724;SDS011;18306;40.960;14.836;2023-02-28T13:29:02;17.38;;;4.30;;
31724;SDS011;18306;40.960;14.836;2023-02-28T13:32:18;7.75;;;2.72;;
31724;SDS011;18306;40.960;14.836;2023-02-28T13:34:46;11.40;;;3.13;;
31724;SDS011;18306;40.960;14.836;2023-02-28T13:39:54;5.97;;;3.27;;
31724;SDS011;18306;40.960;14.836;2023-02-28T13:45:27;5.05;;;3.03;;
31724;SDS011;18306;40.960;14.836;2023-02-28T13:48:03;5.15;;;3.55;;
31724;SDS011;18306;40.960;14.836;2023-02-28T13:50:51;9.70;;;3.65;;
31724;SDS011;18306;40.960;14.836;2023-02-28T13:53:34;8.38;;;3.55;;
31724;SDS011;18306;40.960;14.836;2023-02-28T13:58:53;7.43;;;3.53;;
31724;SDS011;18306;40.960;14.836;2023-02-28T14:06:57;6.97;;;3.58;;
31724;SDS011;18306;40.960;14.836;2023-02-28T14:20:45;9.43;;;5.40;;
31724;SDS011;18306;40.960;14.836;2023-02-28T14:23:24;16.75;;;6.90;;
31724;SDS011;18306;40.960;14.836;2023-02-28T14:26:01;8.18;;;5.00;;
31724;SDS011;18306;40.960;14.836;2023-02-28T14:28:50;10.30;;;5.35;;
31724;SDS011;18306;40.960;14.836;2023-02-28T14:31:49;10.02;;;3.97;;
31724;SDS011;18306;40.960;14.836;2023-02-28T14:37:09;16.75;;;5.97;;
31724;SDS011;18306;40.960;14.836;2023-02-28T14:45:02;8.10;;;5.00;;
31724;SDS011;18306;40.960;14.836;2023-02-28T14:47:33;6.45;;;4.35;;
31724;SDS011;18306;40.960;14.836;2023-02-28T14:50:03;9.40;;;4.47;;
31724;SDS011;18306;40.960;14.836;2023-02-28T14:52:42;10.65;;;6.40;;
31724;SDS011;18306;40.960;14.836;2023-02-28T14:55:12;11.07;;;5.80;;
31724;SDS011;18306;40.960;14.836;2023-02-28T14:57:54;6.85;;;4.47;;
31724;SDS011;18306;40.960;14.836;2023-02-28T15:00:25;10.32;;;5.90;;
31724;SDS011;18306;40.960;14.836;2023-02-28T15:02:55;11.65;;;5.30;;
31724;SDS011;18306;40.960;14.836;2023-02-28T15:05:30;12.88;;;6.07;;
31724;SDS011;18306;40.960;14.836;2023-02-28T15:08:04;10.98;;;6.13;;
31724;SDS011;18306;40.960;14.836;2023-02-28T15:10:32;11.32;;;4.97;;
31724;SDS011;18306;40.960;14.836;2023-02-28T15:13:02;10.13;;;4.70;;
31724;SDS011;18306;40.960;14.836;2023-02-28T15:18:23;6.07;;;4.63;;
31724;SDS011;18306;40.960;14.836;2023-02-28T15:20:59;9.77;;;5.78;;
31724;SDS011;18306;40.960;14.836;2023-02-28T15:23:31;8.02;;;5.30;;
31724;SDS011;18306;40.960;14.836;2023-02-28T15:26:01;8.70;;;5.70;;
31724;SDS011;18306;40.960;14.836;2023-02-28T15:28:30;9.88;;;5.90;;
31724;SDS011;18306;40.960;14.836;2023-02-28T15:31:02;10.88;;;4.80;;
31724;SDS011;18306;40.960;14.836;2023-02-28T15:33:53;15.80;;;6.15;;
31724;SDS011;18306;40.960;14.836;2023-02-28T15:36:28;12.18;;;6.07;;
31724;SDS011;18306;40.960;14.836;2023-02-28T15:39:00;9.60;;;5.65;;
31724;SDS011;18306;40.960;14.836;2023-02-28T15:41:30;16.52;;;6.40;;
31724;SDS011;18306;40.960;14.836;2023-02-28T15:44:16;10.18;;;6.43;;
31724;SDS011;18306;40.960;14.836;2023-02-28T15:46:59;8.55;;;6.32;;
31724;SDS011;18306;40.960;14.836;2023-02-28T15:49:29;10.73;;;6.35;;
31724;SDS011;18306;40.960;14.836;2023-02-28T15:52:03;12.85;;;6.43;;
31724;SDS011;18306;40.960;14.836;2023-02-28T15:54:32;9.20;;;6.05;;
31724;SDS011;18306;40.960;14.836;2023-02-28T15:57:05;10.93;;;5.88;;
31724;SDS011;18306;40.960;14.836;2023-02-28T15:59:35;10.23;;;6.03;;
31724;SDS011;18306;40.960;14.836;2023-02-28T16:02:11;15.40;;;6.90;;
31724;SDS011;18306;40.960;14.836;2023-02-28T16:07:33;12.77;;;7.00;;
31724;SDS011;18306;40.960;14.836;2023-02-28T16:10:09;7.88;;;6.45;;
31724;SDS011;18306;40.960;14.836;2023-02-28T16:12:38;8.32;;;5.65;;
31724;SDS011;18306;40.960;14.836;2023-02-28T16:15:18;8.45;;;5.45;;
31724;SDS011;18306;40.960;14.836;2023-02-28T16:17:49;10.63;;;5.95;;
31724;SDS011;18306;40.960;14.836;2023-02-28T16:20:18;17.92;;;5.72;;
31724;SDS011;18306;40.960;14.836;2023-02-28T16:22:50;8.80;;;5.38;;
31724;SDS011;18306;40.960;14.836;2023-02-28T16:25:19;13.27;;;7.07;;
31724;SDS011;18306;40.960;14.836;2023-02-28T16:27:50;9.32;;;5.72;;
31724;SDS011;18306;40.960;14.836;2023-02-28T16:30:22;14.27;;;5.72;;
31724;SDS011;18306;40.960;14.836;2023-02-28T16:32:51;7.65;;;4.47;;
31724;SDS011;18306;40.960;14.836;2023-02-28T16:35:21;8.02;;;4.80;;
31724;SDS011;18306;40.960;14.836;2023-02-28T16:37:53;10.48;;;4.00;;
31724;SDS011;18306;40.960;14.836;2023-02-28T16:40:42;5.30;;;4.22;;
31724;SDS011;18306;40.960;14.836;2023-02-28T16:43:13;9.52;;;4.65;;
31724;SDS011;18306;40.960;14.836;2023-02-28T16:45:58;7.22;;;4.65;;
31724;SDS011;18306;40.960;14.836;2023-02-28T16:48:30;5.70;;;3.67;;
31724;SDS011;18306;40.960;14.836;2023-02-28T16:51:01;8.27;;;5.15;;
31724;SDS011;18306;40.960;14.836;2023-02-28T16:53:32;12.65;;;6.10;;
31724;SDS011;18306;40.960;14.836;2023-02-28T16:56:00;18.02;;;8.18;;
31724;SDS011;18306;40.960;14.836;2023-02-28T16:58:36;10.63;;;6.38;;
31724;SDS011;18306;40.960;14.836;2023-02-28T17:01:05;12.38;;;6.43;;
31724;SDS011;18306;40.960;14.836;2023-02-28T17:03:35;10.57;;;5.13;;
31724;SDS011;18306;40.960;14.836;2023-02-28T17:06:04;8.25;;;5.07;;
31724;SDS011;18306;40.960;14.836;2023-02-28T17:08:45;7.93;;;4.82;;
31724;SDS011;18306;40.960;14.836;2023-02-28T17:11:16;15.20;;;4.72;;
31724;SDS011;18306;40.960;14.836;2023-02-28T17:13:49;9.65;;;5.28;;
31724;SDS011;18306;40.960;14.836;2023-02-28T17:18:58;8.63;;;5.18;;
31724;SDS011;18306;40.960;14.836;2023-02-28T17:21:28;9.77;;;5.05;;
31724;SDS011;18306;40.960;14.836;2023-02-28T17:24:01;6.57;;;4.78;;
31724;SDS011;18306;40.960;14.836;2023-02-28T17:26:31;10.88;;;5.43;;